Seiyu Maru — JD3189 — position and weather

sailwx.info

Track history (hours):
 
Tides and Currents Weather Stations Pressure Air Temp Water Temp Dewpoint Dewpoint Depression Visibility Wind Speed Wind Dir Waves Ship Positions

Seiyu Maru

Last reported at 2016-Apr-29 19:05 UTC. Time now 2016-May-01 06:07 UTC.
Position N 35°40' E 140°56'.

Length 75 m; draft 4.5 m.

Type: Cargo ship. MMSI: 431002433.

Date/timePositionNaut miles runAvg speedWind from/ knotsBaromVisibWave heightAir tempDewpointWater temp
2016-Apr-29 19:05N 35°40' E 140°56'1911.4
2016-Apr-29 17:24N 35°24' E 140°42'1011.4
2016-Apr-29 16:30N 35°16' E 140°35'2311.6
2016-Apr-29 14:31N 35°00' E 140°14'1310.7
2016-Apr-29 13:21N 34°54' E 140°00'1110.7
2016-Apr-29 12:18N 34°53' E 139°47'910.1
2016-Apr-29 11:27N 35°02' E 139°46'3 0.2
2016-Apr-28 15:25N 35°01' E 139°50'1 0.0
2016-Apr-27 14:03N 35°01' E 139°48'244 9.6
2016-Apr-26 12:33N 34°06' E 134°59'1211.0
2016-Apr-26 11:29N 34°18' E 134°59'1110.5
2016-Apr-26 10:27N 34°26' E 135°07'1011.5
2016-Apr-26 09:33N 34°33' E 135°17'8 7.8
2016-Apr-26 08:33N 34°38' E 135°25'0 0.0
2016-Apr-26 07:33N 34°38' E 135°25'0 0.0
2016-Apr-26 06:33N 34°38' E 135°25'0 0.0
2016-Apr-26 05:34N 34°38' E 135°25'0 0.0
2016-Apr-26 04:33N 34°38' E 135°25'0 0.0
2016-Apr-26 03:33N 34°38' E 135°25'0 0.0
2016-Apr-26 02:33N 34°38' E 135°25'0 0.0
2016-Apr-26 01:33N 34°38' E 135°25'0 0.0
2016-Apr-26 00:33N 34°38' E 135°25'0 0.0
2016-Apr-25 23:33N 34°38' E 135°25'1 1.3
2016-Apr-25 22:33N 34°38' E 135°23'4 4.3
2016-Apr-25 21:32N 34°35' E 135°28'0 0.0
2016-Apr-25 20:33N 34°35' E 135°28'0 0.0
2016-Apr-25 19:29N 34°35' E 135°28'0 0.0
2016-Apr-25 18:33N 34°35' E 135°28'0 0.0
2016-Apr-25 17:30N 34°35' E 135°28'0 0.0
2016-Apr-25 16:28N 34°35' E 135°28'0 0.0
2016-Apr-25 15:33N 34°35' E 135°28'0 0.0
2016-Apr-25 14:33N 34°35' E 135°28'0 0.0
2016-Apr-25 13:32N 34°35' E 135°28'0 0.0
2016-Apr-25 12:31N 34°35' E 135°28'0 0.0
2016-Apr-25 11:33N 34°35' E 135°28'0 0.0
2016-Apr-25 10:33N 34°35' E 135°28'0 0.0
2016-Apr-25 09:32N 34°35' E 135°28'0 0.0
2016-Apr-25 08:33N 34°35' E 135°28'4 4.3
2016-Apr-25 07:33N 34°39' E 135°25'1 0.8
2016-Apr-25 06:33N 34°40' E 135°26'0 0.0
2016-Apr-25 05:33N 34°40' E 135°26'0 0.0
2016-Apr-25 04:33N 34°40' E 135°26'0 0.2
2016-Apr-25 03:33N 34°39' E 135°26'2 0.8
2016-Apr-25 01:22N 34°38' E 135°27'0 0.0
2016-Apr-25 00:10N 34°38' E 135°27'0 0.1
2016-Apr-24 23:28N 34°38' E 135°27'3 3.8
2016-Apr-24 22:34N 34°38' E 135°23'5 4.8
2016-Apr-24 21:33N 34°35' E 135°28'0 0.0
2016-Apr-24 20:33N 34°35' E 135°28'0 0.0
2016-Apr-24 18:16N 34°35' E 135°28'0 0.0
2016-Apr-24 16:28N 34°35' E 135°28'0 0.0
2016-Apr-24 12:10N 34°35' E 135°28'0 0.0
2016-Apr-24 11:16N 34°35' E 135°28'0 0.0
2016-Apr-24 08:28N 34°35' E 135°28'0 0.0
2016-Apr-24 07:28N 34°35' E 135°28'1 0.9
2016-Apr-24 06:33N 34°35' E 135°27'1110.7
2016-Apr-24 05:33N 34°35' E 135°14'1711.9
2016-Apr-24 04:07N 34°35' E 134°53'  
Track history (hours):
 
Tides and Currents Weather Stations Pressure Air Temp Water Temp Dewpoint Dewpoint Depression Visibility Wind Speed Wind Dir Waves Ship Positions

Seiyu Maru

Last reported at 2016-Apr-29 19:05 UTC. Time now 2016-May-01 06:07 UTC.
Position N 35°40' E 140°56'.

Length 75 m; draft 4.5 m.

Type: Cargo ship. MMSI: 431002433.

Date/timePositionNaut miles runAvg speedWind from/ knotsBaromVisibWave heightAir tempDewpointWater temp
2016-Apr-29 19:05N 35°40' E 140°56'1911.4
2016-Apr-29 17:24N 35°24' E 140°42'1011.4
2016-Apr-29 16:30N 35°16' E 140°35'2311.6
2016-Apr-29 14:31N 35°00' E 140°14'1310.7
2016-Apr-29 13:21N 34°54' E 140°00'1110.7
2016-Apr-29 12:18N 34°53' E 139°47'910.1
2016-Apr-29 11:27N 35°02' E 139°46'3 0.2
2016-Apr-28 15:25N 35°01' E 139°50'1 0.0
2016-Apr-27 14:03N 35°01' E 139°48'244 9.6
2016-Apr-26 12:33N 34°06' E 134°59'1211.0
2016-Apr-26 11:29N 34°18' E 134°59'1110.5
2016-Apr-26 10:27N 34°26' E 135°07'1011.5
2016-Apr-26 09:33N 34°33' E 135°17'8 7.8
2016-Apr-26 08:33N 34°38' E 135°25'0 0.0
2016-Apr-26 07:33N 34°38' E 135°25'0 0.0
2016-Apr-26 06:33N 34°38' E 135°25'0 0.0
2016-Apr-26 05:34N 34°38' E 135°25'0 0.0
2016-Apr-26 04:33N 34°38' E 135°25'0 0.0
2016-Apr-26 03:33N 34°38' E 135°25'0 0.0
2016-Apr-26 02:33N 34°38' E 135°25'0 0.0
2016-Apr-26 01:33N 34°38' E 135°25'0 0.0
2016-Apr-26 00:33N 34°38' E 135°25'0 0.0
2016-Apr-25 23:33N 34°38' E 135°25'1 1.3
2016-Apr-25 22:33N 34°38' E 135°23'4 4.3
2016-Apr-25 21:32N 34°35' E 135°28'0 0.0
2016-Apr-25 20:33N 34°35' E 135°28'0 0.0
2016-Apr-25 19:29N 34°35' E 135°28'0 0.0
2016-Apr-25 18:33N 34°35' E 135°28'0 0.0
2016-Apr-25 17:30N 34°35' E 135°28'0 0.0
2016-Apr-25 16:28N 34°35' E 135°28'0 0.0
2016-Apr-25 15:33N 34°35' E 135°28'0 0.0
2016-Apr-25 14:33N 34°35' E 135°28'0 0.0
2016-Apr-25 13:32N 34°35' E 135°28'0 0.0
2016-Apr-25 12:31N 34°35' E 135°28'0 0.0
2016-Apr-25 11:33N 34°35' E 135°28'0 0.0
2016-Apr-25 10:33N 34°35' E 135°28'0 0.0
2016-Apr-25 09:32N 34°35' E 135°28'0 0.0
2016-Apr-25 08:33N 34°35' E 135°28'4 4.3
2016-Apr-25 07:33N 34°39' E 135°25'1 0.8
2016-Apr-25 06:33N 34°40' E 135°26'0 0.0
2016-Apr-25 05:33N 34°40' E 135°26'0 0.0
2016-Apr-25 04:33N 34°40' E 135°26'0 0.2
2016-Apr-25 03:33N 34°39' E 135°26'2 0.8
2016-Apr-25 01:22N 34°38' E 135°27'0 0.0
2016-Apr-25 00:10N 34°38' E 135°27'0 0.1
2016-Apr-24 23:28N 34°38' E 135°27'3 3.8
2016-Apr-24 22:34N 34°38' E 135°23'5 4.8
2016-Apr-24 21:33N 34°35' E 135°28'0 0.0
2016-Apr-24 20:33N 34°35' E 135°28'0 0.0
2016-Apr-24 18:16N 34°35' E 135°28'0 0.0
2016-Apr-24 16:28N 34°35' E 135°28'0 0.0
2016-Apr-24 12:10N 34°35' E 135°28'0 0.0
2016-Apr-24 11:16N 34°35' E 135°28'0 0.0
2016-Apr-24 08:28N 34°35' E 135°28'0 0.0
2016-Apr-24 07:28N 34°35' E 135°28'1 0.9
2016-Apr-24 06:33N 34°35' E 135°27'1110.7
2016-Apr-24 05:33N 34°35' E 135°14'1711.9
2016-Apr-24 04:07N 34°35' E 134°53'  

Dump ship's entire track history